Laredo, Missouri
Current Conditions -  °F | °C
As of 6:37 AM on Sunday 23 Nov 2014 (Local Time) from KIRK Reporting Station
Light Rain Light Rain  
Wind Chill: 51°   Ceiling: 500
Heat Index: 51°   Visibility: 3mi
Dew Point: 50°   Wind: 10mph
Humidity: 96%   Direction: 150°SSE
Pressure: 29.61"   Gusts: NA
Location:  40.03°N, 93.45°W
Report Text: KIRK 231237Z AUTO 15009KT 3SM -RA BR OVC005 11/10 A2961 RMK AO2 CIG 004V009 P0012 T01060100
Loading
Personal Weather Stations






























Interactive Weather Map New forecast layout! Learn more

10-Day Weather Forecast

Advertisements
Track Severe Weather on mobile